createdAt,value
2019-04-12T00:01:14.482Z,99.90
2019-04-12T00:03:46.025Z,99.90
2019-04-12T00:06:17.506Z,99.90
2019-04-12T00:08:49.003Z,99.90
2019-04-12T00:11:20.472Z,99.90
2019-04-12T00:13:51.962Z,99.90
2019-04-12T00:16:23.541Z,99.90
2019-04-12T00:18:55.142Z,99.90
2019-04-12T00:21:26.656Z,99.90
2019-04-12T00:23:58.193Z,99.90
2019-04-12T00:26:30.914Z,99.90
2019-04-12T00:29:02.489Z,99.90
2019-04-12T00:31:33.907Z,99.90
2019-04-12T00:34:05.421Z,99.90
2019-04-12T00:36:36.965Z,99.90
2019-04-12T00:39:09.443Z,99.90
2019-04-12T00:41:41.349Z,99.90
2019-04-12T00:44:14.732Z,99.90
2019-04-12T00:46:46.249Z,99.90
2019-04-12T00:49:17.790Z,99.90
2019-04-12T00:51:49.241Z,99.90
2019-04-12T00:54:20.725Z,99.90
2019-04-12T00:56:52.184Z,99.90
2019-04-12T00:59:23.729Z,99.90
2019-04-12T01:02:07.561Z,99.90
2019-04-12T01:04:46.671Z,99.90
2019-04-12T01:07:20.013Z,99.90
2019-04-12T01:09:53.426Z,99.90
2019-04-12T01:12:26.308Z,99.90
2019-04-12T01:14:59.206Z,99.90
2019-04-12T01:17:32.345Z,99.90
2019-04-12T01:20:04.774Z,99.90
2019-04-12T01:22:42.494Z,99.90
2019-04-12T01:25:14.419Z,99.90
2019-04-12T01:27:47.835Z,99.90
2019-04-12T01:30:19.358Z,99.90
2019-04-12T01:32:50.947Z,99.90
2019-04-12T01:35:22.470Z,99.90
2019-04-12T01:37:54.051Z,99.90
2019-04-12T01:40:25.707Z,99.90
2019-04-12T01:42:57.262Z,99.90
2019-04-12T01:45:28.898Z,99.90
2019-04-12T01:48:00.383Z,99.90
2019-04-12T01:50:31.960Z,99.90
2019-04-12T01:53:03.544Z,99.90
2019-04-12T01:55:35.046Z,99.90
2019-04-12T01:58:06.619Z,99.90
2019-04-12T02:00:38.185Z,99.90
2019-04-12T02:03:09.631Z,99.90
2019-04-12T02:05:41.204Z,99.90
2019-04-12T02:08:12.721Z,99.90
2019-04-12T02:10:46.241Z,99.90
2019-04-12T02:13:18.017Z,99.90
2019-04-12T02:15:49.835Z,99.90
2019-04-12T02:18:22.499Z,99.90
2019-04-12T02:20:54.075Z,99.90
2019-04-12T02:23:25.687Z,99.90
2019-04-12T02:25:57.200Z,99.90
2019-04-12T02:28:30.448Z,99.90
2019-04-12T02:31:04.875Z,99.90
2019-04-12T02:33:36.439Z,99.90
2019-04-12T02:36:08.888Z,99.90
2019-04-12T02:38:40.557Z,99.90
2019-04-12T02:41:12.562Z,99.90
2019-04-12T02:43:44.744Z,99.90
2019-04-12T02:46:19.628Z,99.90
2019-04-12T02:48:58.425Z,99.90
2019-04-12T02:52:00.543Z,99.90
2019-04-12T02:55:03.650Z,99.90
2019-04-12T02:57:46.796Z,99.90
2019-04-12T03:00:28.003Z,99.90
2019-04-12T03:03:02.912Z,99.90
2019-04-12T03:05:47.690Z,99.90
2019-04-12T03:08:19.831Z,99.90
2019-04-12T03:10:54.976Z,99.90
2019-04-12T03:13:29.344Z,99.90
2019-04-12T03:16:02.878Z,99.90
2019-04-12T03:18:35.779Z,99.90
2019-04-12T03:21:07.445Z,99.90
2019-04-12T03:23:39.039Z,99.90
2019-04-12T03:26:11.180Z,99.90
2019-04-12T03:28:43.357Z,99.90
2019-04-12T03:31:15.765Z,99.90
2019-04-12T03:33:47.754Z,99.90
2019-04-12T03:36:19.424Z,99.90
2019-04-12T03:38:51.737Z,99.90
2019-04-12T03:41:23.412Z,99.90
2019-04-12T03:43:55.033Z,99.90
2019-04-12T03:46:26.995Z,99.90
2019-04-12T03:48:59.321Z,99.90
2019-04-12T03:51:31.882Z,99.90
2019-04-12T03:54:03.724Z,99.90
2019-04-12T03:56:35.139Z,99.90
2019-04-12T03:59:22.965Z,99.90
2019-04-12T04:02:07.717Z,99.90
2019-04-12T04:04:39.360Z,99.90
2019-04-12T04:07:10.907Z,99.90
2019-04-12T04:09:43.516Z,99.90
2019-04-12T04:12:15.331Z,99.90
2019-04-12T04:14:49.530Z,99.90
2019-04-12T04:17:59.484Z,99.90
2019-04-12T04:20:53.082Z,99.90
2019-04-12T04:23:47.229Z,99.90
2019-04-12T04:26:41.208Z,99.90
2019-04-12T04:29:26.084Z,99.90
2019-04-12T04:32:29.749Z,99.90
2019-04-12T04:35:02.478Z,99.90
2019-04-12T04:37:35.187Z,99.90
2019-04-12T04:40:08.033Z,99.90
2019-04-12T04:42:39.582Z,99.90
2019-04-12T04:45:11.610Z,99.90
2019-04-12T04:47:43.342Z,99.90
2019-04-12T04:50:15.244Z,99.90
2019-04-12T04:52:47.096Z,99.90
2019-04-12T04:55:18.708Z,99.90
2019-04-12T04:57:50.396Z,99.90
2019-04-12T05:00:22.021Z,99.90
2019-04-12T05:02:53.674Z,99.90
2019-04-12T05:05:25.304Z,99.90
2019-04-12T05:07:57.381Z,99.90
2019-04-12T05:10:30.067Z,99.90
2019-04-12T05:13:02.291Z,99.90
2019-04-12T05:15:34.224Z,99.90
2019-04-12T05:18:06.314Z,99.90
2019-04-12T05:20:38.087Z,99.90
2019-04-12T05:23:10.212Z,99.90
2019-04-12T05:25:41.858Z,94.20
2019-04-12T05:28:13.849Z,98.90
2019-04-12T05:30:45.651Z,99.90
2019-04-12T05:33:17.448Z,98.90
2019-04-12T05:35:49.109Z,97.40
2019-04-12T05:38:22.665Z,96.40
2019-04-12T05:40:54.996Z,96.80
2019-04-12T05:43:28.156Z,95.60
2019-04-12T05:46:21.792Z,95.00
2019-04-12T05:49:18.165Z,95.00
2019-04-12T05:51:51.688Z,94.60
2019-04-12T05:54:29.884Z,93.50
2019-04-12T05:57:01.673Z,93.10
2019-04-12T05:59:40.821Z,92.90
2019-04-12T06:02:37.674Z,92.60
2019-04-12T06:05:11.788Z,92.20
2019-04-12T06:07:43.450Z,92.50
2019-04-12T06:10:15.429Z,92.00
2019-04-12T06:12:47.439Z,91.60
2019-04-12T06:15:19.160Z,91.00
2019-04-12T06:17:51.466Z,91.60
2019-04-12T06:20:32.211Z,92.40
2019-04-12T06:23:03.867Z,91.80
2019-04-12T06:25:45.196Z,92.40
2019-04-12T06:28:17.995Z,92.00
2019-04-12T06:30:51.849Z,91.30
2019-04-12T06:33:23.445Z,90.70
2019-04-12T06:35:55.851Z,88.90
2019-04-12T06:38:27.343Z,90.00
2019-04-12T06:40:58.903Z,90.10
2019-04-12T06:43:30.410Z,88.10
2019-04-12T06:46:04.090Z,87.60
2019-04-12T06:48:37.022Z,89.50
2019-04-12T06:51:09.931Z,89.70
2019-04-12T06:53:41.484Z,88.80
2019-04-12T06:56:30.587Z,87.20
2019-04-12T06:59:02.205Z,86.80
2019-04-12T07:01:38.761Z,84.30
2019-04-12T07:04:28.579Z,81.80
2019-04-12T07:07:03.295Z,81.80
2019-04-12T07:09:34.835Z,80.90
2019-04-12T07:12:06.620Z,78.30
2019-04-12T07:14:38.318Z,78.70
2019-04-12T07:17:09.918Z,80.10
2019-04-12T07:19:41.544Z,81.40
2019-04-12T07:22:13.180Z,81.90
2019-04-12T07:24:44.686Z,80.90
2019-04-12T07:27:16.741Z,82.80
2019-04-12T07:29:48.363Z,82.30
2019-04-12T07:32:20.089Z,80.90
2019-04-12T07:34:51.618Z,80.00
2019-04-12T07:37:23.415Z,77.90
2019-04-12T07:39:55.057Z,75.80
2019-04-12T07:42:26.679Z,75.20
2019-04-12T07:44:58.395Z,77.00
2019-04-12T07:47:29.968Z,76.60
2019-04-12T07:50:04.851Z,75.90
2019-04-12T07:52:36.748Z,71.20
2019-04-12T07:55:26.115Z,66.20
2019-04-12T07:58:19.927Z,64.60
2019-04-12T08:01:09.209Z,64.40
2019-04-12T08:04:12.334Z,53.20
2019-04-12T08:07:08.818Z,60.30
2019-04-12T08:09:40.700Z,58.70
2019-04-12T08:12:12.564Z,55.70
2019-04-12T08:14:44.296Z,56.90
2019-04-12T08:17:15.881Z,54.20
2019-04-12T08:19:48.234Z,54.70
2019-04-12T08:22:20.096Z,52.70
2019-04-12T08:25:10.788Z,51.70
2019-04-12T08:27:43.487Z,50.10
2019-04-12T08:30:15.145Z,54.20
2019-04-12T08:32:46.666Z,57.30
2019-04-12T08:35:18.209Z,58.50
2019-04-12T08:37:49.794Z,61.10
2019-04-12T08:40:21.337Z,56.10
2019-04-12T08:42:52.809Z,51.10
2019-04-12T08:45:24.489Z,46.20
2019-04-12T08:47:56.100Z,44.20
2019-04-12T08:50:27.693Z,45.00
2019-04-12T08:52:59.242Z,45.20
2019-04-12T08:55:30.758Z,45.00
2019-04-12T08:58:10.703Z,48.60
2019-04-12T09:00:35.581Z,47.90
2019-04-12T09:03:07.174Z,50.50
2019-04-12T09:05:40.807Z,50.10
2019-04-12T09:08:12.297Z,64.70
2019-04-12T09:10:43.911Z,56.40
2019-04-12T09:13:15.451Z,57.50
2019-04-12T09:15:47.191Z,57.60
2019-04-12T09:18:18.854Z,55.80
2019-04-12T09:21:08.405Z,56.60
2019-04-12T09:23:47.931Z,57.50
2019-04-12T09:26:19.496Z,55.40
2019-04-12T09:28:50.942Z,55.80
2019-04-12T09:31:22.597Z,53.90
2019-04-12T09:33:54.387Z,56.20
2019-04-12T09:36:25.931Z,47.30
2019-04-12T09:38:57.964Z,41.80
2019-04-12T09:41:29.445Z,41.40
2019-04-12T09:44:01.063Z,41.50
2019-04-12T09:46:32.787Z,41.20
2019-04-12T09:49:04.447Z,54.80
2019-04-12T09:51:36.076Z,40.60
2019-04-12T09:54:07.787Z,40.30
2019-04-12T09:56:39.259Z,38.40
2019-04-12T09:59:10.930Z,37.20
2019-04-12T10:01:42.561Z,37.00
2019-04-12T10:04:15.402Z,35.60
2019-04-12T10:06:47.185Z,36.00
2019-04-12T10:09:27.722Z,32.40
2019-04-12T10:11:52.351Z,27.50
2019-04-12T10:14:23.889Z,24.20
2019-04-12T10:16:55.419Z,25.00
2019-04-12T10:19:27.117Z,26.00
2019-04-12T10:21:58.646Z,25.10
2019-04-12T10:24:30.260Z,26.60
2019-04-12T10:27:09.584Z,26.10
2019-04-12T10:29:41.167Z,25.00
2019-04-12T10:32:12.704Z,24.30
2019-04-12T10:34:55.317Z,22.30
2019-04-12T10:37:17.599Z,19.00
2019-04-12T10:39:49.146Z,19.20
2019-04-12T10:42:20.709Z,19.70
2019-04-12T10:45:00.114Z,17.40
2019-04-12T10:47:54.366Z,15.30
2019-04-12T10:50:44.886Z,15.30
2019-04-12T10:53:30.084Z,17.00
2019-04-12T10:56:02.113Z,14.90
2019-04-12T10:58:33.785Z,26.40
2019-04-12T11:01:07.018Z,15.10
2019-04-12T11:03:38.748Z,15.20
2019-04-12T11:06:10.430Z,15.30
2019-04-12T11:08:42.002Z,15.10
2019-04-12T11:11:15.443Z,14.90
2019-04-12T11:13:47.112Z,15.00
2019-04-12T11:16:18.730Z,15.10
2019-04-12T11:18:50.292Z,16.20
2019-04-12T11:21:21.986Z,15.10
2019-04-12T11:23:53.523Z,15.30
2019-04-12T11:26:25.026Z,14.80
2019-04-12T11:28:56.622Z,15.60
2019-04-12T11:31:28.222Z,13.60
2019-04-12T11:33:59.720Z,11.70
2019-04-12T11:36:31.302Z,13.90
2019-04-12T11:39:02.826Z,13.00
2019-04-12T11:41:36.060Z,12.60
2019-04-12T11:44:07.730Z,15.10
2019-04-12T11:46:39.340Z,15.00
2019-04-12T11:49:11.144Z,15.20
2019-04-12T11:51:43.033Z,15.30
2019-04-12T11:54:14.681Z,14.90
2019-04-12T11:56:46.366Z,15.00
2019-04-12T11:59:29.010Z,14.40
2019-04-12T12:01:58.152Z,13.60
2019-04-12T12:04:47.518Z,10.90
2019-04-12T12:07:49.984Z,10.30
2019-04-12T12:10:35.822Z,9.00
2019-04-12T12:13:20.790Z,8.60
2019-04-12T12:16:17.308Z,9.70
2019-04-12T12:18:52.772Z,12.60
2019-04-12T12:21:24.609Z,9.40
2019-04-12T12:23:56.673Z,13.90
2019-04-12T12:26:30.694Z,16.20
2019-04-12T12:29:02.751Z,16.30
2019-04-12T12:31:34.456Z,15.60
2019-04-12T12:34:06.092Z,18.70
2019-04-12T12:36:37.846Z,19.50
2019-04-12T12:39:10.002Z,20.30
2019-04-12T12:41:41.632Z,20.20
2019-04-12T12:44:13.214Z,21.40
2019-04-12T12:46:44.743Z,21.60
2019-04-12T12:49:16.588Z,20.00
2019-04-12T12:51:48.160Z,17.30
2019-04-12T12:54:19.791Z,21.40
2019-04-12T12:56:51.380Z,18.50
2019-04-12T12:59:23.039Z,17.30
2019-04-12T13:01:54.666Z,19.80
2019-04-12T13:04:26.631Z,19.30
2019-04-12T13:06:58.226Z,18.50
2019-04-12T13:09:30.189Z,16.30
2019-04-12T13:12:01.799Z,26.20
2019-04-12T13:14:33.500Z,15.80
2019-04-12T13:17:05.143Z,15.10
2019-04-12T13:19:36.782Z,11.80
2019-04-12T13:22:08.482Z,11.10
2019-04-12T13:24:40.073Z,13.30
2019-04-12T13:27:11.534Z,19.80
2019-04-12T13:29:43.972Z,5.90
2019-04-12T13:32:33.687Z,11.70
2019-04-12T13:35:23.856Z,10.30
2019-04-12T13:38:03.028Z,11.40
2019-04-12T13:40:37.134Z,11.20
2019-04-12T13:43:11.303Z,13.00
2019-04-12T13:45:42.905Z,11.20
2019-04-12T13:48:14.513Z,8.50
2019-04-12T13:50:46.015Z,6.80
2019-04-12T13:53:20.072Z,6.00
2019-04-12T13:55:53.950Z,9.10
2019-04-12T13:58:25.773Z,10.30
2019-04-12T14:00:57.384Z,10.80
2019-04-12T14:03:29.994Z,10.50
2019-04-12T14:06:01.743Z,8.20
2019-04-12T14:08:33.245Z,8.60
2019-04-12T14:11:04.853Z,9.40
2019-04-12T14:13:36.518Z,7.70
2019-04-12T14:16:08.068Z,8.70
2019-04-12T14:18:39.846Z,6.10
2019-04-12T14:21:11.553Z,7.60
2019-04-12T14:23:43.177Z,7.80
2019-04-12T14:26:14.836Z,8.00
2019-04-12T14:28:46.403Z,7.30
2019-04-12T14:31:23.208Z,7.30
2019-04-12T14:34:09.538Z,19.10
2019-04-12T14:36:56.370Z,9.00
2019-04-12T14:39:27.953Z,10.40
2019-04-12T14:41:59.634Z,10.40
2019-04-12T14:44:45.418Z,10.00
2019-04-12T14:47:24.733Z,11.20
2019-04-12T14:49:56.555Z,10.60
2019-04-12T14:52:28.394Z,21.30
2019-04-12T14:54:59.965Z,10.20
2019-04-12T14:57:31.526Z,11.90
2019-04-12T15:00:03.655Z,10.60
2019-04-12T15:02:37.275Z,9.50
2019-04-12T15:05:09.674Z,9.50
2019-04-12T15:07:41.625Z,9.70
2019-04-12T15:10:13.711Z,9.20
2019-04-12T15:12:45.460Z,10.60
2019-04-12T15:15:17.624Z,8.90
2019-04-12T15:17:49.071Z,10.10
2019-04-12T15:20:20.659Z,10.10
2019-04-12T15:22:52.263Z,9.70
2019-04-12T15:25:23.935Z,10.70
2019-04-12T15:27:55.392Z,9.10
2019-04-12T15:30:26.991Z,10.50
2019-04-12T15:33:01.671Z,11.10
2019-04-12T15:35:33.563Z,10.80
2019-04-12T15:38:05.203Z,11.90
2019-04-12T15:40:36.931Z,11.80
2019-04-12T15:43:08.627Z,10.90
2019-04-12T15:45:40.311Z,11.20
2019-04-12T15:48:12.932Z,13.50
2019-04-12T15:50:44.770Z,12.80
2019-04-12T15:53:16.367Z,11.90
2019-04-12T15:55:48.127Z,10.80
2019-04-12T15:58:19.906Z,8.50
2019-04-12T16:01:10.737Z,8.40
2019-04-12T16:03:34.425Z,8.60
2019-04-12T16:06:09.302Z,7.80
2019-04-12T16:09:01.141Z,9.30
2019-04-12T16:11:48.710Z,15.20
2019-04-12T16:14:23.342Z,15.40
2019-04-12T16:17:46.882Z,14.20
2019-04-12T16:20:18.638Z,14.40
2019-04-12T16:22:50.428Z,14.90
2019-04-12T16:25:22.054Z,15.20
2019-04-12T16:27:57.200Z,17.80
2019-04-12T16:30:45.025Z,16.50
2019-04-12T16:33:46.145Z,17.50
2019-04-12T16:36:24.247Z,17.50
2019-04-12T16:38:55.916Z,19.20
2019-04-12T16:41:27.487Z,18.70
2019-04-12T16:43:59.205Z,20.80
2019-04-12T16:46:34.469Z,21.30
2019-04-12T16:49:05.110Z,21.50
2019-04-12T16:51:36.631Z,21.20
2019-04-12T16:54:08.110Z,21.70
2019-04-12T16:56:39.802Z,22.90
2019-04-12T16:59:11.400Z,21.50
2019-04-12T17:01:44.818Z,22.60
2019-04-12T17:04:16.354Z,24.10
2019-04-12T17:06:48.080Z,22.80
2019-04-12T17:09:19.665Z,22.40
2019-04-12T17:11:51.714Z,23.10
2019-04-12T17:14:23.311Z,24.80
2019-04-12T17:16:55.129Z,26.50
2019-04-12T17:19:27.388Z,25.80
2019-04-12T17:21:59.080Z,25.60
2019-04-12T17:24:30.683Z,27.40
2019-04-12T17:27:02.847Z,26.90
2019-04-12T17:29:34.371Z,28.80
2019-04-12T17:32:05.911Z,30.10
2019-04-12T17:34:37.476Z,29.40
2019-04-12T17:37:09.097Z,28.80
2019-04-12T17:39:40.781Z,29.50
2019-04-12T17:42:12.338Z,32.00
2019-04-12T17:44:43.932Z,32.30
2019-04-12T17:47:15.608Z,33.20
2019-04-12T17:49:55.878Z,34.30
2019-04-12T17:52:55.413Z,37.30
2019-04-12T17:55:40.793Z,38.10
2019-04-12T17:58:12.641Z,50.80
2019-04-12T18:00:50.182Z,38.80
2019-04-12T18:03:22.104Z,39.70
2019-04-12T18:05:53.937Z,41.20
2019-04-12T18:08:25.640Z,41.30
2019-04-12T18:10:58.236Z,41.70
2019-04-12T18:13:31.115Z,43.30
2019-04-12T18:16:02.775Z,46.10
2019-04-12T18:18:34.866Z,46.60
2019-04-12T18:21:07.530Z,42.30
2019-04-12T18:23:39.399Z,50.30
2019-04-12T18:26:11.029Z,50.10
2019-04-12T18:28:42.985Z,66.50
2019-04-12T18:31:14.770Z,52.70
2019-04-12T18:33:46.518Z,54.70
2019-04-12T18:36:18.475Z,58.20
2019-04-12T18:38:50.258Z,57.50
2019-04-12T18:41:22.753Z,57.80
2019-04-12T18:43:54.338Z,57.20
2019-04-12T18:46:26.128Z,61.90
2019-04-12T18:48:59.186Z,64.20
2019-04-12T18:51:31.874Z,62.70
2019-04-12T18:54:03.555Z,65.50
2019-04-12T18:56:35.287Z,67.80
2019-04-12T18:59:07.273Z,68.80
2019-04-12T19:01:39.135Z,70.40
2019-04-12T19:04:11.085Z,70.20
2019-04-12T19:06:42.701Z,71.40
2019-04-12T19:09:14.583Z,72.70
2019-04-12T19:11:46.237Z,72.30
2019-04-12T19:14:17.927Z,76.50
2019-04-12T19:16:49.839Z,77.40
2019-04-12T19:19:22.520Z,79.30
2019-04-12T19:21:54.167Z,81.00
2019-04-12T19:24:25.965Z,83.60
2019-04-12T19:26:57.729Z,87.30
2019-04-12T19:29:31.364Z,89.70
2019-04-12T19:32:24.909Z,90.50
2019-04-12T19:35:06.620Z,91.60
2019-04-12T19:37:49.222Z,91.80
2019-04-12T19:40:25.412Z,93.20
2019-04-12T19:42:57.501Z,94.10
2019-04-12T19:45:29.303Z,95.60
2019-04-12T19:48:00.968Z,96.50
2019-04-12T19:50:32.624Z,97.40
2019-04-12T19:53:04.442Z,98.50
2019-04-12T19:55:36.094Z,98.30
2019-04-12T19:58:07.819Z,99.20
2019-04-12T20:00:40.004Z,99.90
2019-04-12T20:03:11.784Z,99.90
2019-04-12T20:05:43.452Z,99.90
2019-04-12T20:08:15.199Z,99.90
2019-04-12T20:10:47.103Z,99.90
2019-04-12T20:13:18.759Z,99.90
2019-04-12T20:15:50.484Z,99.90
2019-04-12T20:18:22.075Z,99.90
2019-04-12T20:20:53.729Z,99.90
2019-04-12T20:23:27.709Z,99.90
2019-04-12T20:25:59.403Z,99.90
2019-04-12T20:28:31.073Z,99.90
2019-04-12T20:31:02.964Z,99.90
2019-04-12T20:33:34.719Z,99.90
2019-04-12T20:36:06.934Z,99.90
2019-04-12T20:38:38.541Z,99.90
2019-04-12T20:41:10.164Z,99.90
2019-04-12T20:43:41.853Z,99.90
2019-04-12T20:46:13.462Z,99.90
2019-04-12T20:48:45.111Z,99.90
2019-04-12T20:51:16.780Z,99.90
2019-04-12T20:53:48.355Z,99.90
2019-04-12T20:56:20.071Z,99.90
2019-04-12T20:58:51.882Z,99.90
2019-04-12T21:01:23.466Z,99.90
2019-04-12T21:03:54.979Z,99.90
2019-04-12T21:06:26.683Z,99.90
2019-04-12T21:08:58.371Z,99.90
2019-04-12T21:11:29.947Z,99.90
2019-04-12T21:14:01.986Z,99.90
2019-04-12T21:16:33.989Z,99.90
2019-04-12T21:19:06.448Z,99.90
2019-04-12T21:21:38.115Z,99.90
2019-04-12T21:24:11.039Z,99.90
2019-04-12T21:26:42.601Z,99.90
2019-04-12T21:29:14.401Z,99.90
2019-04-12T21:31:46.006Z,99.90
2019-04-12T21:34:17.551Z,99.90
2019-04-12T21:36:49.117Z,99.90
2019-04-12T21:39:20.731Z,99.90
2019-04-12T21:41:52.368Z,99.90
2019-04-12T21:44:23.913Z,99.90
2019-04-12T21:46:55.494Z,99.90
2019-04-12T21:49:27.008Z,99.90
2019-04-12T21:51:58.727Z,99.90
2019-04-12T21:54:30.325Z,99.90
2019-04-12T21:57:01.940Z,99.90
2019-04-12T21:59:33.517Z,99.90
2019-04-12T22:02:06.578Z,99.90
2019-04-12T22:04:38.908Z,99.90
2019-04-12T22:07:10.765Z,99.90
2019-04-12T22:09:42.317Z,99.90
2019-04-12T22:12:14.931Z,99.90
2019-04-12T22:14:46.496Z,99.90
2019-04-12T22:17:19.134Z,99.90
2019-04-12T22:19:50.648Z,99.90
2019-04-12T22:22:22.276Z,99.90
2019-04-12T22:24:53.812Z,99.90
2019-04-12T22:27:25.357Z,99.90
2019-04-12T22:29:56.925Z,99.90
2019-04-12T22:32:30.154Z,99.90
2019-04-12T22:35:01.803Z,99.90
2019-04-12T22:37:33.509Z,99.90
2019-04-12T22:40:05.178Z,99.90
2019-04-12T22:42:36.738Z,99.90
2019-04-12T22:45:08.626Z,99.90
2019-04-12T22:47:40.250Z,99.90
2019-04-12T22:50:11.884Z,99.90
2019-04-12T22:52:43.586Z,99.90
2019-04-12T22:55:17.914Z,99.90
2019-04-12T22:57:50.533Z,99.90
2019-04-12T23:00:22.109Z,99.90
2019-04-12T23:02:53.761Z,99.90
2019-04-12T23:05:25.269Z,99.90
2019-04-12T23:07:56.763Z,99.90
2019-04-12T23:10:28.271Z,99.90
2019-04-12T23:13:00.767Z,99.90
2019-04-12T23:15:32.368Z,99.90
2019-04-12T23:18:03.894Z,99.90
2019-04-12T23:20:36.041Z,99.90
2019-04-12T23:23:07.787Z,99.90
2019-04-12T23:25:49.289Z,99.90
2019-04-12T23:28:21.731Z,99.90
2019-04-12T23:31:13.330Z,99.90
2019-04-12T23:33:51.361Z,99.90
2019-04-12T23:36:23.977Z,99.90
2019-04-12T23:38:55.491Z,99.90
2019-04-12T23:41:27.028Z,99.90
2019-04-12T23:43:58.547Z,99.90
2019-04-12T23:46:31.159Z,99.90
2019-04-12T23:49:02.656Z,99.90
2019-04-12T23:51:34.186Z,99.90
2019-04-12T23:54:05.673Z,99.90
2019-04-12T23:56:37.336Z,99.90
2019-04-12T23:59:08.993Z,99.90
